• Join FlightAware (Why Join?)
  • Login
  • US Flag 
01:02AM EDT


 

Airport Tracker/Info


-or-


 

Live Flight TrackerFlight Track Log ✈ CMP251 ✈ 03-Nov-2013 ✈ MPTO / PTY - SVVA / VLN

Flight Track Log - Related Links

Times and Time Zones

All times are in EST time to prevent confusion due to time zone crossing. See the CMP251 flight status page for this flight to view local times or setup timezone preferences in your user account.

Time Position Orientation Groundspeed Altitude Reporting Facility
EST Latitude Longitude Course Direction KTS MPH feet Rate Location/Type
12:05PM 9.0610 -79.3850 28° Northeast 155 178  Level FlightAware
12:05PM 9.0820 -79.3720 31° Northeast 178 205 900 1,860 Climbing FlightAware
12:06PM 9.0870 -79.3410 81° East 192 221 2,100 2,160 Climbing FlightAware
12:07PM 9.0910 -79.3050 84° East 199 229 3,700 1,740 Climbing FlightAware
12:07PM 9.0920 -79.2790 88° East 240 276 4,100 1,320 Climbing FlightAware
12:08PM 9.0910 -79.2420 92° East 271 312 5,000 1,620 Climbing FlightAware
12:08PM 9.1120 -79.1810 71° East 285 328 6,200 2,280 Climbing FlightAware
12:09PM 9.1270 -79.1440 68° East 274 315 7,900 3,000 Climbing FlightAware
12:09PM 9.1390 -79.1140 68° East 279 321 9,000 2,220 Climbing FlightAware
12:10PM 9.1610 -79.0620 67° East 300 345 10,400 1,680 Climbing FlightAware
12:10PM 9.1720 -79.0370 66° East 324 373 10,700 600 Climbing FlightAware
12:11PM 9.1990 -78.9730 67° East 343 395 11,100 1,980 Climbing FlightAware
12:12PM 9.2210 -78.9090 71° East 369 425 13,400 2,880 Climbing FlightAware
12:12PM 9.2340 -78.8390 79° East 385 443 14,700 2,160 Climbing FlightAware
12:13PM 9.2380 -78.7570 87° East 391 450 16,500 2,280 Climbing FlightAware
12:14PM 9.2310 -78.7040 98° East 393 452 17,700 2,160 Climbing FlightAware
12:14PM 9.2230 -78.6530 99° East 398 458 18,700 1,920 Climbing FlightAware
12:15PM 9.2090 -78.5630 99° East 417 480 20,100 1,800 Climbing FlightAware
12:16PM 9.1960 -78.4840 99° East 429 494 21,200 1,740 Climbing FlightAware
12:16PM 9.1850 -78.4170 99° East 431 496 22,400 1,860 Climbing FlightAware
12:17PM 9.1770 -78.3650 99° East 436 502 23,100 1,680 Climbing FlightAware
12:17PM 9.1650 -78.2920 99° East 444 511 24,100 720 Climbing FlightAware
12:18PM 9.1550 -78.2190 98° East 444 511 24,100 1,620 Level FlightAware
12:18PM 9.1400 -78.1380 101° East 450 518 26,200 2,400 Climbing FlightAware
12:19PM 9.1230 -78.0320 99° East 455 524 27,500 1,440 Climbing FlightAware
12:20PM 9.1120 -77.9650 99° East 461 531 28,200 1,260 Climbing FlightAware
12:20PM 9.0990 -77.8900 100° East 466 536 28,900 1,260 Climbing FlightAware
12:21PM 9.0890 -77.8260 99° East 468 539 29,600 1,380 Climbing FlightAware
12:21PM 9.0770 -77.7520 99° East 468 539 30,400 1,860 Climbing FlightAware
12:22PM 9.0580 -77.6350 99° East 450 518 32,400 2,040 Climbing FlightAware
12:23PM 9.0460 -77.5620 99° East 442 509 33,500 1,440 Climbing FlightAware
12:24PM 9.0320 -77.4810 100° East 443 510 34,200 1,020 Climbing FlightAware
12:24PM 9.0250 -77.4190 97° East 447 514 34,700 960 Climbing FlightAware
12:25PM 9.0320 -77.3250 86° East 456 525 35,400 1,080 Climbing FlightAware
12:25PM 9.0380 -77.2610 85° East 453 521 36,100 1,260 Climbing FlightAware
12:26PM 9.0450 -77.2010 83° East 448 516 36,700 720 Climbing FlightAware
12:26PM 9.0540 -77.1160 84° East 446 513 37,000 240 Climbing FlightAware
12:27PM 9.0610 -77.0470 84° East 444 511 37,000  Level FlightAware
12:28PM 9.0720 -76.9430 84° East 443 510 37,000  Level FlightAware
12:28PM 9.0780 -76.8880 84° East 443 510 37,000  Level FlightAware
12:29PM 9.0850 -76.8160 84° East 443 510 37,000  Level FlightAware
12:29PM 9.0920 -76.7550 83° East 443 510 37,000  Level FlightAware
12:30PM 9.0990 -76.6850 84° East 443 510 37,000 60 Level FlightAware
12:30PM 9.1060 -76.6210 84° East 443 510 37,100 600 Climbing FlightAware
12:31PM 9.1140 -76.5400 84° East 442 509 37,700 600 Climbing FlightAware
12:32PM 9.1200 -76.4870 83° East 446 513 37,800 60 Climbing FlightAware
12:32PM 9.1290 -76.3950 84° East 446 513 37,800  Level FlightAware
12:33PM 9.1360 -76.3300 84° East 446 513 37,800 120 Level FlightAware
12:34PM 9.1470 -76.2260 84° East 460 529 38,000 120 Climbing FlightAware
12:34PM 9.1550 -76.1400 85° East 444 511 38,000  Level FlightAware
12:35PM 9.1700 -76.0040 84° East 443 510 38,000  Level FlightAware
12:37PM 9.1830 -75.8810 84° East 439 505 38,000  Level FlightAware
12:37PM 9.1910 -75.7990 84° East 436 502 38,000  Level FlightAware
12:38PM 9.1970 -75.7410 84° East 435 501 38,000  Level FlightAware
12:38PM 9.2020 -75.6900 84° East 433 498 38,000  Level FlightAware
12:39PM 9.2180 -75.5390 84° East 431 496 38,000  Level FlightAware
12:40PM 9.2250 -75.4660 84° East 430 495 38,000  Level FlightAware
12:41PM 9.2330 -75.3870 84° East 430 495 38,000  Level FlightAware
12:41PM 9.2390 -75.3280 84° East 429 494 38,000  Level FlightAware
12:42PM 9.2490 -75.2260 84° East 429 494 38,000  Level FlightAware
12:43PM 9.2560 -75.1550 84° East 429 494 38,000  Level FlightAware
12:43PM 9.2640 -75.0820 84° East 430 495 38,000  Level FlightAware
12:44PM 9.2710 -75.0110 84° East 431 496 38,000  Level FlightAware
12:44PM 9.2790 -74.9290 84° East 431 496 38,000  Level FlightAware
12:45PM 9.2870 -74.8480 84° East 432 497 38,000  Level FlightAware
12:46PM 9.2960 -74.7860 82° East 433 498 38,000  Level FlightAware
12:46PM 9.3050 -74.7260 81° East 432 497 38,000  Level FlightAware
12:47PM 9.3180 -74.6370 82° East 432 497 38,000  Level FlightAware
12:47PM 9.3300 -74.5570 81° East 430 495 38,000  Level FlightAware
12:48PM 9.3370 -74.5040 82° East 430 495 38,000  Level FlightAware
12:49PM 9.3480 -74.4270 82° East 429 494 38,000  Level FlightAware
12:49PM 9.3580 -74.3590 82° East 429 494 38,000  Level FlightAware
12:50PM 9.3670 -74.2990 81° East 429 494 38,000  Level FlightAware
12:50PM 9.3790 -74.2180 81° East 431 496 38,000  Level FlightAware
12:51PM 9.3890 -74.1480 82° East 430 495 38,000  Level FlightAware
12:52PM 9.4120 -73.9890 82° East 431 496 38,000  Level FlightAware
12:53PM 9.4190 -73.9370 82° East 431 496 38,000  Level FlightAware
12:53PM 9.4280 -73.8750 82° East 433 498 38,000  Level FlightAware
12:54PM 9.4410 -73.7870 81° East 434 499 38,000  Level FlightAware
12:54PM 9.4500 -73.7180 82° East 436 502 38,000  Level FlightAware
12:55PM 9.4630 -73.6270 82° East 437 503 38,000  Level FlightAware
12:56PM 9.4750 -73.5450 82° East 437 503 38,000  Level FlightAware
12:56PM 9.4820 -73.4940 82° East 436 502 38,000  Level FlightAware
12:57PM 9.5010 -73.3650 81° East 436 502 38,000  Level FlightAware
12:58PM 9.5080 -73.3120 82° East 436 502 38,000  Level FlightAware
12:59PM 9.5200 -73.2230 82° East 436 502 38,000 -360 Level FlightAware
12:59PM 9.5300 -73.1560 81° East 431 496 37,600 -780 Descending FlightAware
01:00PM 9.5430 -73.0640 82° East 424 488 37,000 -480 Descending FlightAware
01:01PM 9.5540 -72.9940 81° East 434 499 37,000  Level FlightAware
01:01PM 9.5670 -72.9050 82° East 435 501 37,000  Level FlightAware
01:02PM 9.5760 -72.8430 82° East 436 502 37,000  Level FlightAware
01:02PM 9.5870 -72.7620 82° East 436 502 37,000  Level FlightAware
01:03PM 9.5990 -72.6860 81° East 436 502 37,000  Level FlightAware
01:04PM 9.6100 -72.6060 82° East 435 501 37,000  Level FlightAware
01:04PM 9.6220 -72.5220 82° East 435 501 37,000  Level FlightAware
01:05PM 9.6300 -72.4680 81° East 436 502 37,000  Level FlightAware
01:06PM 9.6460 -72.3600 81° East 437 503 37,000  Level FlightAware
01:07PM 9.6580 -72.2700 82° East 437 503 37,000  Level FlightAware
01:07PM 9.6670 -72.2080 82° East 437 503 37,000  Level FlightAware
01:08PM 9.6730 -72.1670 82° East 437 503 37,000  Level FlightAware
01:08PM 9.6810 -72.1060 82° East 437 503 37,000  Level FlightAware
01:09PM 9.6930 -72.0230 82° East 437 503 37,000  Level FlightAware
01:10PM 9.7040 -71.9400 82° East 437 503 37,000  Level FlightAware
01:10PM 9.7100 -71.8990 82° East 437 503 37,000  Level FlightAware
01:11PM 9.7220 -71.8090 82° East 437 503 37,000  Level FlightAware
01:12PM 9.7330 -71.7300 82° East 437 503 37,000  Level FlightAware
01:12PM 9.7420 -71.6660 82° East 437 503 37,000  Level FlightAware
01:13PM 9.7480 -71.6210 82° East 437 503 37,000  Level FlightAware
01:14PM 9.7660 -71.4950 82° East 437 503 37,000  Level FlightAware
01:15PM 9.7740 -71.4330 83° East 437 503 37,000  Level FlightAware
01:16PM 9.8050 -71.1390 84° East 432 497 37,000  Level FlightAware
01:17PM 9.8190 -71.0390 82° East 430 495 37,000  Level FlightAware
01:17PM 9.8270 -70.9770 83° East 430 495 37,000  Level FlightAware
01:18PM 9.8370 -70.8990 83° East 429 494 37,000  Level FlightAware
01:18PM 9.8460 -70.8380 81° East 427 491 37,000  Level FlightAware
01:20PM 9.8650 -70.6980 82° East 424 488 37,000  Level FlightAware
01:20PM 9.8730 -70.6290 83° East 424 488 37,000  Level FlightAware
01:21PM 9.8850 -70.5470 82° East 427 491 37,000  Level FlightAware
01:22PM 9.8980 -70.4510 82° East 428 493 37,000  Level FlightAware
01:22PM 9.9100 -70.3600 82° East 429 494 37,000  Level FlightAware
01:23PM 9.9190 -70.2910 82° East 430 495 37,000  Level FlightAware
01:24PM 9.9400 -70.1300 82° East 428 493 37,000  Level FlightAware
01:25PM 9.9480 -70.0720 82° East 427 491 37,000  Level FlightAware
01:25PM 9.9590 -69.9910 82° East 428 493 37,000  Level FlightAware
01:26PM 9.9670 -69.9270 83° East 429 494 37,000 -540 Level FlightAware
01:27PM 9.9780 -69.8480 82° East 428 493 36,400 -2,520 Descending FlightAware
01:27PM 9.9850 -69.7880 83° East 451 519 34,300 -3,600 Descending FlightAware
01:28PM 10.0070 -69.6280 82° East 464 534 30,200 -2,700 Descending FlightAware
01:29PM 10.0150 -69.5650 83° East 441 507 29,600 -1,200 Descending FlightAware
01:29PM 10.0240 -69.4950 83° East 420 483 28,900 -1,200 Descending FlightAware
01:30PM 10.0320 -69.4280 83° East 400 460 28,200 -1,140 Descending FlightAware
01:31PM 10.0410 -69.3650 82° East 386 444 27,600 -1,140 Descending FlightAware
01:31PM 10.0440 -69.2930 88° East 376 433 26,800 -1,500 Descending FlightAware
01:32PM 10.0460 -69.2250 88° East 372 428 25,600 -1,740 Descending FlightAware
01:33PM 10.0480 -69.1390 89° East 368 423 24,200 -1,740 Descending FlightAware
01:33PM 10.0500 -69.0820 88° East 366 421 23,200 -1,860 Descending FlightAware
01:34PM 10.0460 -68.9950 93° East 363 418 21,700 -1,860 Descending FlightAware
01:35PM 10.0430 -68.9280 93° East 361 415 20,500 -1,860 Descending FlightAware
01:35PM 10.0400 -68.8670 93° East 360 414 19,400 -1,140 Descending FlightAware
01:36PM 10.0380 -68.8110 92° East 359 413 19,100 -1,800 Descending FlightAware
01:37PM 10.0330 -68.6960 93° East 349 402 16,400 -2,220 Descending FlightAware
01:38PM 10.0290 -68.6260 93° East 343 395 15,200 -1,680 Descending FlightAware
01:39PM 10.0260 -68.5600 93° East 338 389 14,100 -1,620 Descending FlightAware
01:39PM 10.0260 -68.5440 90° East 335 386 13,200 -1,560 Descending FlightAware
01:40PM 10.0210 -68.4480 93° East 325 374 12,100 -1,680 Descending FlightAware
01:40PM 10.0190 -68.3980 92° East 320 368 11,200 -1,680 Descending FlightAware
01:41PM 10.0170 -68.3460 92° East 306 352 10,300 -1,320 Descending FlightAware
01:42PM 10.0150 -68.2970 92° East 291 335 9,700 -1,200 Descending FlightAware
01:42PM 10.0140 -68.2740 93° East 289 333 9,300 -1,620 Descending FlightAware
01:43PM 10.0520 -68.2250 52° Northeast 284 327 8,000 -1,320 Descending FlightAware
01:43PM 10.0930 -68.1910 39° Northeast 261 300 7,300 -840 Descending FlightAware
01:44PM 10.1190 -68.1700 38° Northeast 243 280 7,000 -1,140 Descending FlightAware
01:44PM 10.1500 -68.1450 38° Northeast 231 266 6,100 -1,560 Descending FlightAware
01:45PM 10.1580 -68.0970 80° East 213 245 4,900 -1,380 Descending FlightAware
01:46PM 10.1560 -68.0650 94° East 201 231 4,200 -1,200 Descending FlightAware
01:46PM 10.1550 -68.0320 92° East 186 214 3,500 -1,200 Descending FlightAware
01:47PM 10.1540 -68.0070 92° East 178 205 2,900 -660 Descending FlightAware
01:47PM 10.1530 -67.9890 93° East 178 205 2,900  Level FlightAware
01:50PM 10.1497 -67.9284 93° East  Level Estimated
01:51PM 10.1497 -67.9284 North  Level Estimated
01:52PM 10.1497 -67.9284 North  Level Estimated
01:53PM 10.1497 -67.9284 North  Level Estimated
01:54PM 10.1497 -67.9284 North  Level Estimated
01:55PM 10.1497 -67.9284 North  Level Estimated
01:56PM 10.1497 -67.9284 North  Level Estimated
01:57PM 10.1497 -67.9284 North  Level Estimated
01:58PM 10.1497 -67.9284 North  Level Estimated
01:59PM 10.1497 -67.9284 North  Level Estimated
02:00PM 10.1497 -67.9284 North  Level Estimated
02:01PM 10.1497 -67.9284 North  Level Estimated
02:02PM 10.1497 -67.9284 North  Level Estimated
02:03PM 10.1497 -67.9284 North  Level Estimated
02:04PM 10.1497 -67.9284 North  Level Estimated
02:05PM 10.1497 -67.9284 North  Level Estimated
02:06PM 10.1497 -67.9284 North  Level Estimated
02:07PM 10.1497 -67.9284 North  Level Estimated
02:08PM 10.1497 -67.9284 North  Level Estimated
02:09PM 10.1497 -67.9284 North  Level Estimated